Observation data for Seagraves on 09/13/2017      Previous  Date  Next       Current Mesonet Observations  Soil Data  Daily Summary Page  Observations in Plain Language
KSGV 130505Z 16002KT 24/09 A2995 RMK A01 T02400088  RH  039%=      5-min Rain = 0
KSGV 130510Z 17003KT 24/09 A2995 RMK A01 T02380088  RH  039%=      5-min Rain = 0
KSGV 130515Z 17001KT 24/09 A2995 RMK A01 T02360092  RH  040%=      5-min Rain = 0
KSGV 130520Z 04000KT 23/11 A2995 RMK A01 T02320113  RH  048%=      5-min Rain = 0
KSGV 130525Z 04001KT 22/12 A2995 RMK A01 T02240120  RH  053%=      5-min Rain = 0
KSGV 130530Z 04001KT 22/12 A2995 RMK A01 T02220122  RH  054%=      5-min Rain = 0
KSGV 130535Z 04005KT 22/11 A2995 RMK A01 T02230109  RH  049%=      5-min Rain = 0
KSGV 130540Z 05004KT 23/09 A2996 RMK A01 T02330086  RH  040%=      5-min Rain = 0
KSGV 130545Z 11005KT 24/08 A2995 RMK A01 T02430081  RH  036%=      5-min Rain = 0
KSGV 130550Z 15002KT 25/08 A2995 RMK A01 T02510082  RH  035%=      5-min Rain = 0
KSGV 130555Z 13003KT 25/08 A2995 RMK A01 T02510083  RH  035%=      5-min Rain = 0
KSGV 130600Z 12004KT 25/08 A2995 RMK A01 T02500084  RH  035%=      5-min Rain = 0
KSGV 130605Z 11002KT 25/08 A2995 RMK A01 T02500083  RH  035%=      5-min Rain = 0
KSGV 130610Z 07003KT 25/09 A2995 RMK A01 T02470086  RH  036%=      5-min Rain = 0
KSGV 130615Z 05004KT 24/08 A2996 RMK A01 T02440084  RH  037%=      5-min Rain = 0
KSGV 130620Z 04004KT 24/09 A2996 RMK A01 T02420085  RH  037%=      5-min Rain = 0
KSGV 130625Z 02004KT 24/09 A2996 RMK A01 T02400085  RH  038%=      5-min Rain = 0
KSGV 130630Z 00005KT 24/09 A2997 RMK A01 T02370087  RH  039%=      5-min Rain = 0
KSGV 130635Z 01003KT 23/09 A2996 RMK A01 T02330086  RH  039%=      5-min Rain = 0
KSGV 130640Z 04003KT 23/09 A2996 RMK A01 T02330086  RH  040%=      5-min Rain = 0
KSGV 130645Z 07004KT 23/10 A2995 RMK A01 T02320096  RH  043%=      5-min Rain = 0
KSGV 130650Z 09006KT 23/10 A2994 RMK A01 T02280103  RH  046%=      5-min Rain = 0
KSGV 130655Z 10006KT 23/10 A2994 RMK A01 T02280098  RH  044%=      5-min Rain = 0
KSGV 130700Z 10005KT 23/10 A2994 RMK A01 T02290097  RH  044%=      5-min Rain = 0
KSGV 130705Z 08006KT 23/10 A2994 RMK A01 T02280100  RH  045%=      5-min Rain = 0
KSGV 130710Z 09005KT 23/10 A2994 RMK A01 T02250103  RH  047%=      5-min Rain = 0
KSGV 130715Z 08003KT 22/10 A2994 RMK A01 T02240103  RH  047%=      5-min Rain = 0
KSGV 130720Z 00002KT 22/11 A2994 RMK A01 T02200109  RH  050%=      5-min Rain = 0
KSGV 130725Z 08002KT 22/11 A2994 RMK A01 T02180108  RH  050%=      5-min Rain = 0
KSGV 130730Z 07003KT 22/11 A2994 RMK A01 T02170111  RH  052%=      5-min Rain = 0
KSGV 130735Z 04002KT 22/11 A2994 RMK A01 T02150110  RH  052%=      5-min Rain = 0
KSGV 130740Z 07002KT 21/11 A2994 RMK A01 T02140108  RH  052%=      5-min Rain = 0
KSGV 130745Z 10003KT 21/11 A2993 RMK A01 T02120108  RH  052%=      5-min Rain = 0
KSGV 130750Z 07004KT 21/11 A2993 RMK A01 T02110108  RH  053%=      5-min Rain = 0
KSGV 130755Z 09004KT 21/11 A2993 RMK A01 T02120108  RH  052%=      5-min Rain = 0
KSGV 130800Z 09004KT 21/11 A2993 RMK A01 T02110109  RH  053%=      5-min Rain = 0
KSGV 130805Z 11004KT 21/11 A2992 RMK A01 T02100109  RH  053%=      5-min Rain = 0
KSGV 130810Z 10003KT 21/11 A2992 RMK A01 T02090110  RH  054%=      5-min Rain = 0
KSGV 130815Z 09004KT 21/11 A2992 RMK A01 T02070111  RH  055%=      5-min Rain = 0
KSGV 130820Z 09005KT 20/11 A2992 RMK A01 T02040111  RH  056%=      5-min Rain = 0
KSGV 130825Z 10005KT 20/11 A2992 RMK A01 T02030111  RH  057%=      5-min Rain = 0
KSGV 130830Z 11005KT 20/11 A2991 RMK A01 T02030112  RH  057%=      5-min Rain = 0
KSGV 130835Z 11006KT 20/11 A2991 RMK A01 T02020113  RH  057%=      5-min Rain = 0
KSGV 130840Z 11005KT 20/11 A2991 RMK A01 T02010113  RH  058%=      5-min Rain = 0
KSGV 130845Z 10004KT 20/11 A2991 RMK A01 T02010114  RH  058%=      5-min Rain = 0
KSGV 130850Z 09004KT 20/11 A2991 RMK A01 T02020114  RH  058%=      5-min Rain = 0
KSGV 130855Z 10005KT 20/12 A299 RMK A01 T02020115  RH  058%=      5-min Rain = 0
KSGV 130900Z 11005KT 20/12 A299 RMK A01 T02020115  RH  058%=      5-min Rain = 0
KSGV 130905Z 11004KT 20/12 A299 RMK A01 T02020115  RH  058%=      5-min Rain = 0
KSGV 130910Z 11004KT 20/12 A299 RMK A01 T02030115  RH  058%=      5-min Rain = 0
KSGV 130915Z 11004KT 20/12 A299 RMK A01 T02030115  RH  058%=      5-min Rain = 0
KSGV 130920Z 12004KT 20/12 A2991 RMK A01 T02030116  RH  058%=      5-min Rain = 0
KSGV 130925Z 11003KT 20/12 A2991 RMK A01 T02020115  RH  058%=      5-min Rain = 0
KSGV 130930Z 14002KT 20/12 A2991 RMK A01 T02020116  RH  059%=      5-min Rain = 0
KSGV 130935Z 18003KT 20/12 A2991 RMK A01 T02000116  RH  060%=      5-min Rain = 0
KSGV 130940Z 19005KT 20/12 A2991 RMK A01 T01950118  RH  062%=      5-min Rain = 0
KSGV 130945Z 19004KT 19/12 A2991 RMK A01 T01930118  RH  063%=      5-min Rain = 0
KSGV 130950Z 16002KT 19/12 A2991 RMK A01 T01910119  RH  064%=      5-min Rain = 0
KSGV 130955Z 14003KT 19/12 A2991 RMK A01 T01910119  RH  064%=      5-min Rain = 0
KSGV 131000Z 13003KT 19/12 A2991 RMK A01 T01930118  RH  063%=      5-min Rain = 0
KSGV 131005Z 14004KT 19/12 A2991 RMK A01 T01940116  RH  062%=      5-min Rain = 0
KSGV 131010Z 13003KT 20/12 A2991 RMK A01 T01960115  RH  061%=      5-min Rain = 0
KSGV 131015Z 13003KT 20/12 A2991 RMK A01 T01960115  RH  060%=      5-min Rain = 0
KSGV 131020Z 11003KT 20/12 A2991 RMK A01 T01970116  RH  061%=      5-min Rain = 0
KSGV 131025Z 12004KT 20/12 A2991 RMK A01 T01970116  RH  061%=      5-min Rain = 0
KSGV 131030Z 12003KT 20/12 A2991 RMK A01 T01970116  RH  061%=      5-min Rain = 0
KSGV 131035Z 12003KT 20/12 A2991 RMK A01 T01970116  RH  061%=      5-min Rain = 0
KSGV 131040Z 12003KT 20/12 A2991 RMK A01 T01970116  RH  060%=      5-min Rain = 0
KSGV 131045Z 11003KT 20/12 A2991 RMK A01 T01980116  RH  060%=      5-min Rain = 0
KSGV 131050Z 11003KT 20/12 A2991 RMK A01 T01980116  RH  060%=      5-min Rain = 0
KSGV 131055Z 12004KT 20/12 A299 RMK A01 T01980115  RH  060%=      5-min Rain = 0
KSGV 131100Z 14003KT 20/12 A2991 RMK A01 T01990116  RH  060%=      5-min Rain = 0
KSGV 131105Z 16003KT 20/12 A2991 RMK A01 T01980115  RH  060%=      5-min Rain = 0
KSGV 131110Z 16002KT 20/12 A2991 RMK A01 T01970117  RH  061%=      5-min Rain = 0
KSGV 131115Z 13002KT 20/12 A2991 RMK A01 T01950117  RH  062%=      5-min Rain = 0
KSGV 131120Z 11003KT 20/12 A2991 RMK A01 T01960117  RH  061%=      5-min Rain = 0
KSGV 131125Z 11002KT 20/12 A2991 RMK A01 T01970117  RH  061%=      5-min Rain = 0
KSGV 131130Z 12002KT 20/12 A2991 RMK A01 T01970116  RH  060%=      5-min Rain = 0
KSGV 131135Z 12002KT 20/12 A2991 RMK A01 T01980116  RH  060%=      5-min Rain = 0
KSGV 131140Z 12002KT 20/12 A2991 RMK A01 T01980117  RH  060%=      5-min Rain = 0
KSGV 131145Z 11002KT 20/12 A2991 RMK A01 T01980116  RH  060%=      5-min Rain = 0
KSGV 131150Z 10001KT 20/12 A2991 RMK A01 T01980116  RH  060%=      5-min Rain = 0
KSGV 131155Z 10002KT 20/12 A2991 RMK A01 T01980116  RH  060%=      5-min Rain = 0
KSGV 131200Z 10002KT 20/11 A2991 RMK A01 T01980114  RH  060%=      5-min Rain = 0
KSGV 131205Z 09002KT 20/11 A2991 RMK A01 T01980114  RH  060%=      5-min Rain = 0
KSGV 131210Z 08002KT 20/11 A2992 RMK A01 T01980114  RH  060%=      5-min Rain = 0
KSGV 131215Z 08003KT 20/11 A2992 RMK A01 T01980114  RH  059%=      5-min Rain = 0
KSGV 131220Z 08003KT 20/11 A2992 RMK A01 T01980113  RH  059%=      5-min Rain = 0
KSGV 131225Z 08003KT 20/11 A2992 RMK A01 T01990114  RH  059%=      5-min Rain = 0
KSGV 131230Z 09003KT 20/11 A2992 RMK A01 T01990114  RH  059%=      5-min Rain = 0
KSGV 131235Z 09003KT 20/11 A2992 RMK A01 T01990113  RH  059%=      5-min Rain = 0
KSGV 131240Z 10003KT 20/11 A2992 RMK A01 T01990114  RH  059%=      5-min Rain = 0
KSGV 131245Z 11003KT 20/11 A2992 RMK A01 T01980114  RH  059%=      5-min Rain = 0
KSGV 131250Z 11002KT 20/12 A2992 RMK A01 T01980115  RH  060%=      5-min Rain = 0
KSGV 131255Z 12002KT 20/12 A2993 RMK A01 T01970116  RH  060%=      5-min Rain = 0
KSGV 131300Z 12002KT 20/12 A2993 RMK A01 T01960117  RH  061%=      5-min Rain = 0
KSGV 131305Z 11002KT 20/12 A2993 RMK A01 T01960117  RH  061%=      5-min Rain = 0
KSGV 131310Z 11002KT 20/12 A2993 RMK A01 T01950117  RH  062%=      5-min Rain = 0
KSGV 131315Z 11002KT 20/12 A2993 RMK A01 T01950117  RH  062%=      5-min Rain = 0
KSGV 131320Z 09002KT 20/12 A2993 RMK A01 T01950119  RH  063%=      5-min Rain = 0
KSGV 131325Z 10002KT 20/12 A2993 RMK A01 T01950119  RH  062%=      5-min Rain = 0
KSGV 131330Z 10003KT 20/12 A2993 RMK A01 T01950117  RH  062%=      5-min Rain = 0
KSGV 131335Z 10002KT 20/12 A2993 RMK A01 T01970115  RH  060%=      5-min Rain = 0
KSGV 131340Z 10002KT 20/12 A2993 RMK A01 T01990116  RH  060%=      5-min Rain = 0
KSGV 131345Z 09002KT 20/12 A2993 RMK A01 T02010116  RH  059%=      5-min Rain = 0
KSGV 131350Z 09002KT 20/12 A2993 RMK A01 T02030115  RH  058%=      5-min Rain = 0
KSGV 131355Z 09002KT 20/11 A2994 RMK A01 T02040114  RH  057%=      5-min Rain = 0
KSGV 131400Z 09002KT 21/12 A2993 RMK A01 T02050115  RH  057%=      5-min Rain = 0
KSGV 131405Z 10003KT 21/11 A2993 RMK A01 T02070113  RH  056%=      5-min Rain = 0
KSGV 131410Z 09003KT 21/11 A2993 RMK A01 T02080113  RH  055%=      5-min Rain = 0
KSGV 131415Z 08003KT 21/12 A2993 RMK A01 T02090115  RH  056%=      5-min Rain = 0
KSGV 131420Z 09004KT 21/11 A2993 RMK A01 T02100112  RH  055%=      5-min Rain = 0
KSGV 131425Z 09003KT 21/11 A2993 RMK A01 T02110112  RH  054%=      5-min Rain = 0
KSGV 131430Z 08003KT 21/11 A2993 RMK A01 T02130112  RH  053%=      5-min Rain = 0
KSGV 131435Z 08004KT 21/11 A2994 RMK A01 T02140113  RH  053%=      5-min Rain = 0
KSGV 131440Z 08003KT 22/11 A2994 RMK A01 T02150113  RH  053%=      5-min Rain = 0
KSGV 131445Z 09003KT 22/11 A2994 RMK A01 T02160114  RH  053%=      5-min Rain = 0
KSGV 131450Z 10003KT 22/11 A2994 RMK A01 T02180112  RH  052%=      5-min Rain = 0
KSGV 131455Z 11003KT 22/11 A2994 RMK A01 T02200110  RH  051%=      5-min Rain = 0
KSGV 131500Z 12003KT 22/11 A2994 RMK A01 T02210111  RH  050%=      5-min Rain = 0
KSGV 131505Z 12003KT 22/11 A2994 RMK A01 T02220113  RH  051%=      5-min Rain = 0
KSGV 131510Z 13004KT 22/11 A2994 RMK A01 T02230113  RH  051%=      5-min Rain = 0
KSGV 131515Z 12005KT 22/11 A2994 RMK A01 T02230112  RH  050%=      5-min Rain = 0
KSGV 131520Z 14004KT 23/11 A2994 RMK A01 T02260110  RH  049%=      5-min Rain = 0
KSGV 131525Z 13004KT 23/11 A2994 RMK A01 T02250110  RH  049%=      5-min Rain = 0
KSGV 131530Z 12004KT 23/11 A2994 RMK A01 T02270111  RH  049%=      5-min Rain = 0
KSGV 131535Z 12005KT 23/11 A2994 RMK A01 T02310112  RH  048%=      5-min Rain = 0
KSGV 131540Z 12006KT 24/11 A2994 RMK A01 T02380112  RH  046%=      5-min Rain = 0
KSGV 131545Z 12005KT 24/11 A2994 RMK A01 T02430112  RH  045%=      5-min Rain = 0
KSGV 131550Z 12005KT 25/11 A2994 RMK A01 T02460112  RH  044%=      5-min Rain = 0
KSGV 131555Z 11005KT 25/11 A2994 RMK A01 T02500112  RH  043%=      5-min Rain = 0
KSGV 131600Z 13004KT 25/11 A2994 RMK A01 T02540112  RH  042%=      5-min Rain = 0
KSGV 131605Z 14005KT 26/11 A2994 RMK A01 T02570109  RH  040%=      5-min Rain = 0
KSGV 131610Z 13005KT 26/11 A2994 RMK A01 T02630111  RH  039%=      5-min Rain = 0
KSGV 131615Z 13005KT 27/11 A2994 RMK A01 T02660112  RH  039%=      5-min Rain = 0
KSGV 131620Z 14006KT 27/11 A2994 RMK A01 T02680110  RH  038%=      5-min Rain = 0
KSGV 131625Z 13006KT 27/11 A2994 RMK A01 T02710110  RH  037%=      5-min Rain = 0
KSGV 131630Z 13005KT 27/11 A2994 RMK A01 T02730111  RH  037%=      5-min Rain = 0
KSGV 131635Z 14006KT 27/11 A2993 RMK A01 T02740110  RH  036%=      5-min Rain = 0
KSGV 131640Z 13006KT 28/11 A2993 RMK A01 T02790110  RH  036%=      5-min Rain = 0
KSGV 131645Z 13006KT 28/11 A2993 RMK A01 T02810109  RH  035%=      5-min Rain = 0
KSGV 131650Z 10006KT 28/10 A2993 RMK A01 T02840102  RH  033%=      5-min Rain = 0
KSGV 131655Z 11006KT 29/10 A2993 RMK A01 T02850101  RH  032%=      5-min Rain = 0
KSGV 131700Z 13006KT 29/10 A2993 RMK A01 T02860101  RH  032%=      5-min Rain = 0
KSGV 131705Z 13006KT 29/10 A2993 RMK A01 T02870102  RH  032%=      5-min Rain = 0
KSGV 131710Z 12005KT 29/11 A2993 RMK A01 T02910105  RH  032%=      5-min Rain = 0
KSGV 131715Z 12006KT 30/10 A2993 RMK A01 T02970104  RH  031%=      5-min Rain = 0
KSGV 131720Z 13005KT 30/11 A2993 RMK A01 T02980107  RH  031%=      5-min Rain = 0
KSGV 131725Z 14006KT 30/11 A2993 RMK A01 T03030105  RH  030%=      5-min Rain = 0
KSGV 131730Z 14006KT 30/10 A2992 RMK A01 T03020102  RH  030%=      5-min Rain = 0
KSGV 131735Z 12005KT 31/10 A2992 RMK A01 T03080104  RH  029%=      5-min Rain = 0
KSGV 131740Z 11006KT 31/10 A2992 RMK A01 T03070098  RH  028%=      5-min Rain = 0
KSGV 131745Z 13006KT 31/10 A2992 RMK A01 T03090099  RH  028%=      5-min Rain = 0
KSGV 131750Z 10005KT 31/10 A2992 RMK A01 T03110100  RH  028%=      5-min Rain = 0
KSGV 131755Z 11006KT 31/10 A2992 RMK A01 T03130104  RH  028%=      5-min Rain = 0
KSGV 131800Z 12006KT 32/10 A2992 RMK A01 T03150096  RH  026%=      5-min Rain = 0
KSGV 131805Z 13004KT 32/09 A2991 RMK A01 T03160094  RH  026%=      5-min Rain = 0
KSGV 131810Z 14005KT 32/09 A2991 RMK A01 T03200087  RH  024%=      5-min Rain = 0
KSGV 131815Z 12005KT 32/09 A2991 RMK A01 T03220090  RH  024%=      5-min Rain = 0
KSGV 131820Z 10005KT 32/09 A2991 RMK A01 T03220091  RH  024%=      5-min Rain = 0
KSGV 131825Z 12005KT 32/09 A2991 RMK A01 T03220090  RH  024%=      5-min Rain = 0
KSGV 131830Z 16005KT 33/08 A2991 RMK A01 T03270083  RH  023%=      5-min Rain = 0
KSGV 131835Z 15005KT 33/09 A299 RMK A01 T03300091  RH  023%=      5-min Rain = 0
KSGV 131840Z 17006KT 33/08 A299 RMK A01 T03320078  RH  021%=      5-min Rain = 0
KSGV 131845Z 18006KT 33/07 A299 RMK A01 T03330073  RH  020%=      5-min Rain = 0
KSGV 131850Z 15006KT 33/07 A299 RMK A01 T03330066  RH  019%=      5-min Rain = 0
KSGV 131855Z 16007KT 34/07 A299 RMK A01 T03350066  RH  019%=      5-min Rain = 0
KSGV 131900Z 15008KT 34/07 A2989 RMK A01 T03360066  RH  019%=      5-min Rain = 0
KSGV 131905Z 14006G11KT 34/08 A2989 RMK A01 T03350076  RH  020%=      5-min Rain = 0
KSGV 131910Z 15007G12KT 34/08 A2989 RMK A01 T03380076  RH  020%=      5-min Rain = 0
KSGV 131915Z 18009KT 34/07 A2989 RMK A01 T03410070  RH  019%=      5-min Rain = 0
KSGV 131920Z 18008KT 34/06 A2989 RMK A01 T03410062  RH  018%=      5-min Rain = 0
KSGV 131925Z 16008KT 34/07 A2988 RMK A01 T03380065  RH  019%=      5-min Rain = 0
KSGV 131930Z 15007G12KT 34/07 A2988 RMK A01 T03360072  RH  020%=      5-min Rain = 0
KSGV 131935Z 14006G12KT 34/07 A2988 RMK A01 T03400073  RH  019%=      5-min Rain = 0
KSGV 131940Z 13008KT 34/08 A2988 RMK A01 T03380076  RH  020%=      5-min Rain = 0
KSGV 131945Z 15008G13KT 34/08 A2987 RMK A01 T03380076  RH  020%=      5-min Rain = 0
KSGV 131950Z 16005G10KT 34/08 A2987 RMK A01 T03410075  RH  020%=      5-min Rain = 0
KSGV 131955Z 15007KT 34/07 A2987 RMK A01 T03440074  RH  019%=      5-min Rain = 0
KSGV 132000Z 15007KT 34/08 A2986 RMK A01 T03410076  RH  020%=      5-min Rain = 0
KSGV 132005Z 16008G14KT 35/07 A2986 RMK A01 T03450074  RH  019%=      5-min Rain = 0
KSGV 132010Z 19005G11KT 35/07 A2986 RMK A01 T03450073  RH  019%=      5-min Rain = 0
KSGV 132015Z 15006G11KT 35/07 A2986 RMK A01 T03470074  RH  019%=      5-min Rain = 0
KSGV 132020Z 15009KT 35/07 A2986 RMK A01 T03480072  RH  018%=      5-min Rain = 0
KSGV 132025Z 13004KT 34/07 A2985 RMK A01 T03440066  RH  018%=      5-min Rain = 0
KSGV 132030Z 11003KT 34/07 A2985 RMK A01 T03440067  RH  018%=      5-min Rain = 0
KSGV 132035Z 15006G11KT 35/07 A2985 RMK A01 T03480067  RH  018%=      5-min Rain = 0
KSGV 132040Z 17005G10KT 35/07 A2985 RMK A01 T03500066  RH  018%=      5-min Rain = 0
KSGV 132045Z 08003KT 35/06 A2984 RMK A01 T03500064  RH  017%=      5-min Rain = 0
KSGV 132050Z 13005G11KT 35/07 A2984 RMK A01 T03490066  RH  018%=      5-min Rain = 0
KSGV 132055Z 14005KT 35/07 A2984 RMK A01 T03510066  RH  018%=      5-min Rain = 0
KSGV 132100Z 16005G11KT 35/06 A2984 RMK A01 T03520060  RH  017%=      5-min Rain = 0
KSGV 132105Z 14004KT 35/06 A2984 RMK A01 T03510062  RH  017%=      5-min Rain = 0
KSGV 132110Z 12003KT 35/06 A2983 RMK A01 T03520062  RH  017%=      5-min Rain = 0
KSGV 132115Z 10004G10KT 35/06 A2983 RMK A01 T03540063  RH  017%=      5-min Rain = 0
KSGV 132120Z 11005G10KT 35/06 A2983 RMK A01 T03530062  RH  017%=      5-min Rain = 0
KSGV 132125Z 11003G8KT 36/06 A2983 RMK A01 T03550059  RH  016%=      5-min Rain = 0
KSGV 132130Z 13007KT 36/06 A2983 RMK A01 T03580062  RH  016%=      5-min Rain = 0
KSGV 132135Z 12006G11KT 36/06 A2983 RMK A01 T03550059  RH  016%=      5-min Rain = 0
KSGV 132140Z 12007G12KT 35/06 A2983 RMK A01 T03540059  RH  016%=      5-min Rain = 0
KSGV 132145Z 14005KT 35/06 A2983 RMK A01 T03530057  RH  016%=      5-min Rain = 0
KSGV 132150Z 07004KT 35/06 A2982 RMK A01 T03520056  RH  016%=      5-min Rain = 0
KSGV 132155Z 12004KT 35/06 A2982 RMK A01 T03520055  RH  016%=      5-min Rain = 0
KSGV 132200Z 12001KT 36/05 A2982 RMK A01 T03560053  RH  016%=      5-min Rain = 0
KSGV 132205Z 10004KT 36/06 A2982 RMK A01 T03590055  RH  016%=      5-min Rain = 0
KSGV 132210Z 13001KT 36/05 A2982 RMK A01 T03580053  RH  015%=      5-min Rain = 0
KSGV 132215Z 12005KT 36/06 A2982 RMK A01 T03600055  RH  015%=      5-min Rain = 0
KSGV 132220Z 15004G9KT 35/05 A2982 RMK A01 T03540054  RH  016%=      5-min Rain = 0
KSGV 132225Z 09002KT 36/05 A2982 RMK A01 T03560053  RH  016%=      5-min Rain = 0
KSGV 132230Z 13005G10KT 36/06 A2982 RMK A01 T03580056  RH  016%=      5-min Rain = 0
KSGV 132235Z 12005KT 36/06 A2982 RMK A01 T03560055  RH  016%=      5-min Rain = 0
KSGV 132240Z 11005KT 35/05 A2981 RMK A01 T03530053  RH  016%=      5-min Rain = 0
KSGV 132245Z 12005KT 35/05 A2981 RMK A01 T03520052  RH  016%=      5-min Rain = 0
KSGV 132250Z 11004KT 35/06 A2981 RMK A01 T03540055  RH  016%=      5-min Rain = 0
KSGV 132255Z 09005G10KT 36/06 A2981 RMK A01 T03550055  RH  016%=      5-min Rain = 0
KSGV 132300Z 11006G11KT 35/06 A2981 RMK A01 T03530055  RH  016%=      5-min Rain = 0
KSGV 132305Z 11005KT 35/05 A2981 RMK A01 T03510054  RH  016%=      5-min Rain = 0
KSGV 132310Z 11005KT 35/05 A2981 RMK A01 T03510053  RH  016%=      5-min Rain = 0
KSGV 132315Z 12005KT 35/06 A2981 RMK A01 T03510056  RH  016%=      5-min Rain = 0
KSGV 132320Z 09006KT 35/06 A2981 RMK A01 T03520059  RH  016%=      5-min Rain = 0
KSGV 132325Z 09005KT 35/06 A2981 RMK A01 T03500055  RH  016%=      5-min Rain = 0
KSGV 132330Z 13006KT 35/05 A2981 RMK A01 T03510053  RH  016%=      5-min Rain = 0
KSGV 132335Z 12005KT 35/05 A2981 RMK A01 T03510052  RH  016%=      5-min Rain = 0
KSGV 132340Z 11004KT 35/05 A2981 RMK A01 T03490051  RH  016%=      5-min Rain = 0
KSGV 132345Z 11004G9KT 35/06 A2981 RMK A01 T03480057  RH  017%=      5-min Rain = 0
KSGV 132350Z 12008KT 35/06 A2981 RMK A01 T03470057  RH  017%=      5-min Rain = 0
KSGV 132355Z 10006G11KT 34/06 A2981 RMK A01 T03440060  RH  017%=      5-min Rain = 0
KSGV 140000Z 09007KT 34/06 A2981 RMK A01 T03420063  RH  018%=      5-min Rain = 0
KSGV 140005Z 10007G12KT 34/06 A2981 RMK A01 T03400064  RH  018%=      5-min Rain = 0
KSGV 140010Z 10006KT 34/07 A2981 RMK A01 T03380066  RH  019%=      5-min Rain = 0
KSGV 140015Z 09006G11KT 34/07 A2981 RMK A01 T03360068  RH  019%=      5-min Rain = 0
KSGV 140020Z 10006KT 33/07 A2981 RMK A01 T03330069  RH  020%=      5-min Rain = 0
KSGV 140025Z 10006KT 33/07 A2981 RMK A01 T03300071  RH  020%=      5-min Rain = 0
KSGV 140030Z 10006KT 33/08 A2981 RMK A01 T03270075  RH  021%=      5-min Rain = 0
KSGV 140035Z 11006KT 32/08 A2981 RMK A01 T03240076  RH  022%=      5-min Rain = 0
KSGV 140040Z 11006KT 32/08 A2981 RMK A01 T03210076  RH  022%=      5-min Rain = 0
KSGV 140045Z 10006KT 32/08 A2981 RMK A01 T03170076  RH  023%=      5-min Rain = 0
KSGV 140050Z 10006KT 31/08 A2981 RMK A01 T03140075  RH  023%=      5-min Rain = 0
KSGV 140055Z 10005KT 31/08 A2981 RMK A01 T03100076  RH  023%=      5-min Rain = 0
KSGV 140100Z 10005KT 31/08 A2981 RMK A01 T03060077  RH  024%=      5-min Rain = 0
KSGV 140105Z 10006KT 30/08 A2981 RMK A01 T03030077  RH  025%=      5-min Rain = 0
KSGV 140110Z 11005KT 30/08 A2982 RMK A01 T02990077  RH  025%=      5-min Rain = 0
KSGV 140115Z 11005KT 30/08 A2982 RMK A01 T02960076  RH  026%=      5-min Rain = 0
KSGV 140120Z 11006KT 29/08 A2982 RMK A01 T02940077  RH  026%=      5-min Rain = 0
KSGV 140125Z 11005KT 29/08 A2982 RMK A01 T02910078  RH  027%=      5-min Rain = 0
KSGV 140130Z 11006KT 29/08 A2982 RMK A01 T02890077  RH  027%=      5-min Rain = 0
KSGV 140135Z 11005KT 29/08 A2982 RMK A01 T02870078  RH  027%=      5-min Rain = 0
KSGV 140140Z 11006KT 28/08 A2982 RMK A01 T02840079  RH  028%=      5-min Rain = 0
KSGV 140145Z 10006KT 28/08 A2983 RMK A01 T02810080  RH  029%=      5-min Rain = 0
KSGV 140150Z 10006KT 28/08 A2983 RMK A01 T02820077  RH  028%=      5-min Rain = 0
KSGV 140155Z 10005KT 28/08 A2983 RMK A01 T02820077  RH  028%=      5-min Rain = 0
KSGV 140200Z 10005KT 28/08 A2983 RMK A01 T02790077  RH  028%=      5-min Rain = 0
KSGV 140205Z 10006KT 28/08 A2983 RMK A01 T02780076  RH  028%=      5-min Rain = 0
KSGV 140210Z 10005KT 28/08 A2983 RMK A01 T02760075  RH  028%=      5-min Rain = 0
KSGV 140215Z 10005KT 28/08 A2984 RMK A01 T02750075  RH  029%=      5-min Rain = 0
KSGV 140220Z 10005KT 27/08 A2984 RMK A01 T02730075  RH  029%=      5-min Rain = 0
KSGV 140225Z 10006KT 27/08 A2984 RMK A01 T02720075  RH  029%=      5-min Rain = 0
KSGV 140230Z 10006KT 27/08 A2984 RMK A01 T02710076  RH  029%=      5-min Rain = 0
KSGV 140235Z 11006KT 27/08 A2984 RMK A01 T02710077  RH  030%=      5-min Rain = 0
KSGV 140240Z 11005G10KT 27/08 A2984 RMK A01 T02690078  RH  030%=      5-min Rain = 0
KSGV 140245Z 11006KT 27/08 A2984 RMK A01 T02680077  RH  030%=      5-min Rain = 0
KSGV 140250Z 11006KT 27/08 A2985 RMK A01 T02670077  RH  031%=      5-min Rain = 0
KSGV 140255Z 11006KT 27/08 A2985 RMK A01 T02660077  RH  031%=      5-min Rain = 0
KSGV 140300Z 11006KT 27/08 A2985 RMK A01 T02650077  RH  031%=      5-min Rain = 0
KSGV 140305Z 11006KT 27/08 A2985 RMK A01 T02650077  RH  031%=      5-min Rain = 0
KSGV 140310Z 11006KT 26/08 A2985 RMK A01 T02630077  RH  031%=      5-min Rain = 0
KSGV 140315Z 11005KT 26/08 A2985 RMK A01 T02620077  RH  031%=      5-min Rain = 0
KSGV 140320Z 11006KT 26/08 A2985 RMK A01 T02600077  RH  032%=      5-min Rain = 0
KSGV 140325Z 11005KT 26/08 A2986 RMK A01 T02590077  RH  032%=      5-min Rain = 0
KSGV 140330Z 11006KT 26/08 A2986 RMK A01 T02590077  RH  032%=      5-min Rain = 0
KSGV 140335Z 11008KT 26/08 A2986 RMK A01 T02590075  RH  032%=      5-min Rain = 0
KSGV 140340Z 11007KT 26/08 A2986 RMK A01 T02600076  RH  032%=      5-min Rain = 0
KSGV 140345Z 11006KT 26/08 A2986 RMK A01 T02570078  RH  032%=      5-min Rain = 0
KSGV 140350Z 11006KT 25/08 A2986 RMK A01 T02540081  RH  034%=      5-min Rain = 0
KSGV 140355Z 12007KT 25/08 A2986 RMK A01 T02510083  RH  035%=      5-min Rain = 0
KSGV 140400Z 12007KT 25/08 A2986 RMK A01 T02490084  RH  036%=      5-min Rain = 0
KSGV 140405Z 12006KT 25/09 A2986 RMK A01 T02490085  RH  036%=      5-min Rain = 0
KSGV 140410Z 12006KT 25/09 A2986 RMK A01 T02480086  RH  036%=      5-min Rain = 0
KSGV 140415Z 12006KT 25/09 A2986 RMK A01 T02460087  RH  037%=      5-min Rain = 0
KSGV 140420Z 12006KT 25/09 A2986 RMK A01 T02450088  RH  037%=      5-min Rain = 0
KSGV 140425Z 12005KT 24/09 A2986 RMK A01 T02440089  RH  038%=      5-min Rain = 0
KSGV 140430Z 12006KT 24/09 A2986 RMK A01 T02440090  RH  038%=      5-min Rain = 0
KSGV 140435Z 12006KT 24/09 A2986 RMK A01 T02430092  RH  039%=      5-min Rain = 0
KSGV 140440Z 12007KT 24/09 A2986 RMK A01 T02430093  RH  039%=      5-min Rain = 0
KSGV 140445Z 12006KT 24/09 A2986 RMK A01 T02420094  RH  040%=      5-min Rain = 0
KSGV 140450Z 12007KT 24/10 A2986 RMK A01 T02400095  RH  040%=      5-min Rain = 0
KSGV 140455Z 11008KT 24/10 A2986 RMK A01 T02390096  RH  041%=      5-min Rain = 0
KSGV 140500Z 12006KT 24/10 A2986 RMK A01 T02390096  RH  041%=      5-min Rain = 0

Page generated in 0.0099 seconds.